カンザスシティ の空港の天気 - METARとTAF

カンザスシティ国際空港 ( KMCI / MCI ) - アメリカ ミズーリ州カンザスシティ
飛行場実況気象(Metar)
観測時間12/14 00:27 CST (12/14 06:27 UTC)
風向・風速北 8m/s
視程10km以上
天気現象
全天を覆う雲 雲底高度 270m
気温1.1℃
湿度85%
気圧1020hPa
METARKMCI 140627Z 36015KT 7SM OVC009 01/M01 A3011 RMK AO2 T00111011
過去の天気等 Google飛行場航空写真 Wunderground天気予報

過去48時間のMETAR

飛行場予報(TAF)
発表時間: 12/13 23:40 CST (12/14 05:40 UTC)
予報対象時間: 14日0時 CST ~ 15日0時 CST
風向・風速北 6m/s
視程10km以上
天気現象もや
全天を覆う雲 雲底高度 300m
14日0時 CST ~ 14日1時 CST に一時的に
全天の8割程度の雲 雲底高度 240m
14日1時 CST から
風向・風速北 6m/s
視程8050m
天気現象もや
全天の8割程度の雲 雲底高度 240m
14日7時 CST から
風向・風速北 5m/s
視程10km以上
全天の8割程度の雲 雲底高度 430m
14日10時 CST から
風向・風速北 5m/s
視程10km以上
なし
KMCI 140540Z 1406/1506 36012KT 6SM BR OVC010
TEMPO 1406/1407 BKN008
FM140700 36012KT 5SM BR BKN008
FM141300 36010KT P6SM BKN014
FM141600 36010KT P6SM SKC